Terminal Aerodrome Forecast
Issued by NWS Buffalo, NY

Current Version | Previous Version | Text Only | Print | Product List | Glossary On
Versions: 1 2 3 4 5 6 7 8 9 10 11 12 13 14 15 16 17 18 19 20 21 22 23 24 25 26 27 28
000
FTUS41 KBUF 291735
TAFART
TAF
KART 291735Z 2918/3018 24009KT P6SM SCT250
     FM300200 17006KT P6SM FEW250
     FM300900 20009KT P6SM VCSH BKN050
     FM301000 21009KT 6SM -SHRA SCT007 BKN050
     FM301400 23011KT P6SM BKN060
     FM301600 24012G18KT P6SM BKN250=

USA.gov is the U.S. government's official web portal to all federal, state and local government web resources and services.